sensor_id;sensor_type;location;lat;lon;timestamp;P1;durP1;ratioP1;P2;durP2;ratioP2
69937;SDS011;57248;47.320;15.998;2024-01-10T00:00:10;2.70;;;0.47;;
69937;SDS011;57248;47.320;15.998;2024-01-10T00:02:42;6.57;;;1.45;;
69937;SDS011;57248;47.320;15.998;2024-01-10T00:05:14;0.93;;;0.43;;
69937;SDS011;57248;47.320;15.998;2024-01-10T00:07:47;4.70;;;0.93;;
69937;SDS011;57248;47.320;15.998;2024-01-10T00:10:20;1.67;;;0.43;;
69937;SDS011;57248;47.320;15.998;2024-01-10T00:13:00;0.63;;;0.20;;
69937;SDS011;57248;47.320;15.998;2024-01-10T00:15:39;2.60;;;0.57;;
69937;SDS011;57248;47.320;15.998;2024-01-10T00:18:11;3.83;;;1.08;;
69937;SDS011;57248;47.320;15.998;2024-01-10T00:20:45;2.38;;;1.00;;
69937;SDS011;57248;47.320;15.998;2024-01-10T00:23:17;5.50;;;0.45;;
69937;SDS011;57248;47.320;15.998;2024-01-10T00:25:50;1.97;;;0.90;;
69937;SDS011;57248;47.320;15.998;2024-01-10T00:28:15;3.10;;;1.20;;
69937;SDS011;57248;47.320;15.998;2024-01-10T00:30:51;2.88;;;0.60;;
69937;SDS011;57248;47.320;15.998;2024-01-10T00:33:22;2.93;;;0.63;;
69937;SDS011;57248;47.320;15.998;2024-01-10T00:35:54;2.50;;;0.95;;
69937;SDS011;57248;47.320;15.998;2024-01-10T00:38:26;2.28;;;0.73;;
69937;SDS011;57248;47.320;15.998;2024-01-10T00:40:58;2.60;;;0.95;;
69937;SDS011;57248;47.320;15.998;2024-01-10T00:43:30;3.40;;;1.00;;
69937;SDS011;57248;47.320;15.998;2024-01-10T00:46:03;2.43;;;1.00;;
69937;SDS011;57248;47.320;15.998;2024-01-10T00:48:35;3.03;;;0.88;;
69937;SDS011;57248;47.320;15.998;2024-01-10T00:51:07;3.03;;;1.05;;
69937;SDS011;57248;47.320;15.998;2024-01-10T00:53:39;3.35;;;0.77;;
69937;SDS011;57248;47.320;15.998;2024-01-10T00:56:05;5.07;;;1.63;;
69937;SDS011;57248;47.320;15.998;2024-01-10T00:58:37;8.07;;;1.73;;
69937;SDS011;57248;47.320;15.998;2024-01-10T01:01:09;2.55;;;0.88;;
69937;SDS011;57248;47.320;15.998;2024-01-10T01:03:41;2.30;;;0.87;;
69937;SDS011;57248;47.320;15.998;2024-01-10T01:06:13;2.08;;;0.75;;
69937;SDS011;57248;47.320;15.998;2024-01-10T01:08:39;1.55;;;0.30;;
69937;SDS011;57248;47.320;15.998;2024-01-10T01:11:11;6.83;;;0.93;;
69937;SDS011;57248;47.320;15.998;2024-01-10T01:13:52;1.58;;;0.65;;
69937;SDS011;57248;47.320;15.998;2024-01-10T01:16:24;1.10;;;0.32;;
69937;SDS011;57248;47.320;15.998;2024-01-10T01:18:50;3.57;;;0.80;;
69937;SDS011;57248;47.320;15.998;2024-01-10T01:21:21;3.40;;;0.88;;
69937;SDS011;57248;47.320;15.998;2024-01-10T01:23:54;2.58;;;0.80;;
69937;SDS011;57248;47.320;15.998;2024-01-10T01:26:25;3.97;;;1.35;;
69937;SDS011;57248;47.320;15.998;2024-01-10T01:28:57;6.17;;;1.60;;
69937;SDS011;57248;47.320;15.998;2024-01-10T01:31:30;3.63;;;1.17;;
69937;SDS011;57248;47.320;15.998;2024-01-10T01:34:02;4.18;;;1.15;;
69937;SDS011;57248;47.320;15.998;2024-01-10T01:36:33;4.97;;;1.10;;
69937;SDS011;57248;47.320;15.998;2024-01-10T01:39:05;2.47;;;0.90;;
69937;SDS011;57248;47.320;15.998;2024-01-10T01:41:37;2.37;;;0.67;;
69937;SDS011;57248;47.320;15.998;2024-01-10T01:44:10;3.47;;;0.70;;
69937;SDS011;57248;47.320;15.998;2024-01-10T01:46:35;2.37;;;0.80;;
69937;SDS011;57248;47.320;15.998;2024-01-10T01:49:08;3.42;;;0.80;;
69937;SDS011;57248;47.320;15.998;2024-01-10T01:51:35;1.95;;;0.90;;
69937;SDS011;57248;47.320;15.998;2024-01-10T01:54:08;3.35;;;1.20;;
69937;SDS011;57248;47.320;15.998;2024-01-10T01:56:40;2.35;;;0.73;;
69937;SDS011;57248;47.320;15.998;2024-01-10T01:59:14;3.93;;;1.27;;
69937;SDS011;57248;47.320;15.998;2024-01-10T02:01:46;10.23;;;1.30;;
69937;SDS011;57248;47.320;15.998;2024-01-10T02:04:19;3.60;;;1.27;;
69937;SDS011;57248;47.320;15.998;2024-01-10T02:06:51;1.42;;;0.80;;
69937;SDS011;57248;47.320;15.998;2024-01-10T02:09:30;5.18;;;1.02;;
69937;SDS011;57248;47.320;15.998;2024-01-10T02:12:03;3.83;;;1.47;;
69937;SDS011;57248;47.320;15.998;2024-01-10T02:14:29;1.73;;;0.60;;
69937;SDS011;57248;47.320;15.998;2024-01-10T02:17:01;1.58;;;0.68;;
69937;SDS011;57248;47.320;15.998;2024-01-10T02:19:33;3.00;;;0.68;;
69937;SDS011;57248;47.320;15.998;2024-01-10T02:22:05;1.45;;;0.35;;
69937;SDS011;57248;47.320;15.998;2024-01-10T02:24:38;10.67;;;1.00;;
69937;SDS011;57248;47.320;15.998;2024-01-10T02:27:09;1.50;;;0.55;;
69937;SDS011;57248;47.320;15.998;2024-01-10T02:29:42;1.83;;;0.75;;
69937;SDS011;57248;47.320;15.998;2024-01-10T02:32:08;2.63;;;0.43;;
69937;SDS011;57248;47.320;15.998;2024-01-10T02:34:39;2.75;;;0.73;;
69937;SDS011;57248;47.320;15.998;2024-01-10T02:37:11;4.30;;;1.50;;
69937;SDS011;57248;47.320;15.998;2024-01-10T02:39:43;4.50;;;1.70;;
69937;SDS011;57248;47.320;15.998;2024-01-10T02:42:16;2.37;;;0.80;;
69937;SDS011;57248;47.320;15.998;2024-01-10T02:44:48;3.50;;;0.88;;
69937;SDS011;57248;47.320;15.998;2024-01-10T02:47:20;0.85;;;0.30;;
69937;SDS011;57248;47.320;15.998;2024-01-10T02:49:52;2.97;;;0.70;;
69937;SDS011;57248;47.320;15.998;2024-01-10T02:52:24;3.22;;;0.43;;
69937;SDS011;57248;47.320;15.998;2024-01-10T02:54:56;1.80;;;0.83;;
69937;SDS011;57248;47.320;15.998;2024-01-10T02:57:28;1.88;;;0.63;;
69937;SDS011;57248;47.320;15.998;2024-01-10T03:00:01;1.33;;;0.25;;
69937;SDS011;57248;47.320;15.998;2024-01-10T03:02:32;1.83;;;0.45;;
69937;SDS011;57248;47.320;15.998;2024-01-10T03:05:05;1.75;;;0.85;;
69937;SDS011;57248;47.320;15.998;2024-01-10T03:07:36;6.23;;;0.60;;
69937;SDS011;57248;47.320;15.998;2024-01-10T03:10:09;1.55;;;0.55;;
69937;SDS011;57248;47.320;15.998;2024-01-10T03:12:47;2.97;;;0.32;;
69937;SDS011;57248;47.320;15.998;2024-01-10T03:15:19;2.75;;;0.95;;
69937;SDS011;57248;47.320;15.998;2024-01-10T03:17:52;4.60;;;0.90;;
69937;SDS011;57248;47.320;15.998;2024-01-10T03:20:17;3.90;;;1.30;;
69937;SDS011;57248;47.320;15.998;2024-01-10T03:22:48;2.03;;;0.55;;
69937;SDS011;57248;47.320;15.998;2024-01-10T03:25:20;1.13;;;0.43;;
69937;SDS011;57248;47.320;15.998;2024-01-10T03:27:52;4.45;;;0.77;;
69937;SDS011;57248;47.320;15.998;2024-01-10T03:30:24;1.90;;;0.75;;
69937;SDS011;57248;47.320;15.998;2024-01-10T03:32:56;2.80;;;0.73;;
69937;SDS011;57248;47.320;15.998;2024-01-10T03:35:28;3.90;;;0.65;;
69937;SDS011;57248;47.320;15.998;2024-01-10T03:38:00;2.27;;;1.27;;
69937;SDS011;57248;47.320;15.998;2024-01-10T03:40:33;1.95;;;0.77;;
69937;SDS011;57248;47.320;15.998;2024-01-10T03:42:58;1.85;;;0.82;;
69937;SDS011;57248;47.320;15.998;2024-01-10T03:45:31;1.33;;;0.60;;
69937;SDS011;57248;47.320;15.998;2024-01-10T03:47:56;1.38;;;0.77;;
69937;SDS011;57248;47.320;15.998;2024-01-10T03:50:27;1.10;;;0.50;;
69937;SDS011;57248;47.320;15.998;2024-01-10T03:52:59;4.07;;;0.65;;
69937;SDS011;57248;47.320;15.998;2024-01-10T03:55:32;6.05;;;0.68;;
69937;SDS011;57248;47.320;15.998;2024-01-10T03:58:04;2.88;;;0.95;;
69937;SDS011;57248;47.320;15.998;2024-01-10T04:00:35;1.55;;;0.38;;
69937;SDS011;57248;47.320;15.998;2024-01-10T04:03:07;1.40;;;0.53;;
69937;SDS011;57248;47.320;15.998;2024-01-10T04:05:40;2.10;;;0.57;;
69937;SDS011;57248;47.320;15.998;2024-01-10T04:08:12;3.65;;;0.85;;
69937;SDS011;57248;47.320;15.998;2024-01-10T04:10:51;2.85;;;1.23;;
69937;SDS011;57248;47.320;15.998;2024-01-10T04:13:24;2.10;;;0.85;;
69937;SDS011;57248;47.320;15.998;2024-01-10T04:15:55;3.90;;;1.27;;
69937;SDS011;57248;47.320;15.998;2024-01-10T04:18:27;4.53;;;0.88;;
69937;SDS011;57248;47.320;15.998;2024-01-10T04:20:59;1.80;;;0.77;;
69937;SDS011;57248;47.320;15.998;2024-01-10T04:23:39;2.55;;;0.82;;
69937;SDS011;57248;47.320;15.998;2024-01-10T04:26:12;2.88;;;0.98;;
69937;SDS011;57248;47.320;15.998;2024-01-10T04:28:43;10.50;;;0.73;;
69937;SDS011;57248;47.320;15.998;2024-01-10T04:31:16;3.58;;;1.08;;
69937;SDS011;57248;47.320;15.998;2024-01-10T04:33:48;4.15;;;1.30;;
69937;SDS011;57248;47.320;15.998;2024-01-10T04:36:20;2.65;;;0.70;;
69937;SDS011;57248;47.320;15.998;2024-01-10T04:38:52;2.60;;;1.15;;
69937;SDS011;57248;47.320;15.998;2024-01-10T04:41:18;3.83;;;1.27;;
69937;SDS011;57248;47.320;15.998;2024-01-10T04:43:51;3.85;;;1.45;;
69937;SDS011;57248;47.320;15.998;2024-01-10T04:46:24;2.17;;;0.93;;
69937;SDS011;57248;47.320;15.998;2024-01-10T04:48:55;10.02;;;1.35;;
69937;SDS011;57248;47.320;15.998;2024-01-10T04:51:28;0.70;;;0.22;;
69937;SDS011;57248;47.320;15.998;2024-01-10T04:54:00;1.92;;;0.52;;
69937;SDS011;57248;47.320;15.998;2024-01-10T04:56:32;1.85;;;0.52;;
69937;SDS011;57248;47.320;15.998;2024-01-10T04:59:04;2.30;;;1.17;;
69937;SDS011;57248;47.320;15.998;2024-01-10T05:01:35;1.88;;;0.82;;
69937;SDS011;57248;47.320;15.998;2024-01-10T05:04:09;1.27;;;0.68;;
69937;SDS011;57248;47.320;15.998;2024-01-10T05:06:41;7.18;;;0.93;;
69937;SDS011;57248;47.320;15.998;2024-01-10T05:09:06;3.73;;;1.10;;
69937;SDS011;57248;47.320;15.998;2024-01-10T05:11:44;2.38;;;0.60;;
69937;SDS011;57248;47.320;15.998;2024-01-10T05:14:21;4.18;;;0.70;;
69937;SDS011;57248;47.320;15.998;2024-01-10T05:16:54;0.73;;;0.40;;
69937;SDS011;57248;47.320;15.998;2024-01-10T05:19:33;1.60;;;0.80;;
69937;SDS011;57248;47.320;15.998;2024-01-10T05:22:06;7.10;;;1.02;;
69937;SDS011;57248;47.320;15.998;2024-01-10T05:24:38;2.83;;;1.40;;
69937;SDS011;57248;47.320;15.998;2024-01-10T05:27:03;3.30;;;1.90;;
69937;SDS011;57248;47.320;15.998;2024-01-10T05:29:36;4.13;;;0.47;;
69937;SDS011;57248;47.320;15.998;2024-01-10T05:32:08;1.67;;;0.38;;
69937;SDS011;57248;47.320;15.998;2024-01-10T05:34:41;7.72;;;1.02;;
69937;SDS011;57248;47.320;15.998;2024-01-10T05:37:14;1.90;;;0.87;;
69937;SDS011;57248;47.320;15.998;2024-01-10T05:39:47;2.58;;;0.68;;
69937;SDS011;57248;47.320;15.998;2024-01-10T05:42:20;1.52;;;0.47;;
69937;SDS011;57248;47.320;15.998;2024-01-10T05:44:52;4.32;;;1.25;;
69937;SDS011;57248;47.320;15.998;2024-01-10T05:47:25;1.15;;;0.55;;
69937;SDS011;57248;47.320;15.998;2024-01-10T05:49:58;2.33;;;0.87;;
69937;SDS011;57248;47.320;15.998;2024-01-10T05:52:31;2.10;;;0.82;;
69937;SDS011;57248;47.320;15.998;2024-01-10T05:55:03;1.85;;;0.85;;
69937;SDS011;57248;47.320;15.998;2024-01-10T05:57:35;3.60;;;1.17;;
69937;SDS011;57248;47.320;15.998;2024-01-10T06:00:02;1.45;;;0.63;;
69937;SDS011;57248;47.320;15.998;2024-01-10T06:02:36;4.60;;;1.33;;
69937;SDS011;57248;47.320;15.998;2024-01-10T06:05:10;1.95;;;0.45;;
69937;SDS011;57248;47.320;15.998;2024-01-10T06:07:43;1.15;;;0.43;;
69937;SDS011;57248;47.320;15.998;2024-01-10T06:10:15;2.05;;;0.38;;
69937;SDS011;57248;47.320;15.998;2024-01-10T06:12:55;2.47;;;0.65;;
69937;SDS011;57248;47.320;15.998;2024-01-10T06:15:28;2.03;;;0.80;;
69937;SDS011;57248;47.320;15.998;2024-01-10T06:18:01;2.55;;;1.70;;
69937;SDS011;57248;47.320;15.998;2024-01-10T06:20:26;3.50;;;1.20;;
69937;SDS011;57248;47.320;15.998;2024-01-10T06:22:59;1.15;;;0.75;;
69937;SDS011;57248;47.320;15.998;2024-01-10T06:25:31;0.40;;;0.20;;
69937;SDS011;57248;47.320;15.998;2024-01-10T06:28:03;2.75;;;1.00;;
69937;SDS011;57248;47.320;15.998;2024-01-10T06:30:35;1.65;;;0.73;;
69937;SDS011;57248;47.320;15.998;2024-01-10T06:33:00;2.50;;;0.67;;
69937;SDS011;57248;47.320;15.998;2024-01-10T06:35:33;4.68;;;0.82;;
69937;SDS011;57248;47.320;15.998;2024-01-10T06:38:06;0.60;;;0.20;;
69937;SDS011;57248;47.320;15.998;2024-01-10T06:40:38;1.97;;;0.67;;
69937;SDS011;57248;47.320;15.998;2024-01-10T06:43:10;2.08;;;0.70;;
69937;SDS011;57248;47.320;15.998;2024-01-10T06:45:42;2.63;;;0.90;;
69937;SDS011;57248;47.320;15.998;2024-01-10T06:48:17;2.38;;;0.60;;
69937;SDS011;57248;47.320;15.998;2024-01-10T06:50:52;5.85;;;1.10;;
69937;SDS011;57248;47.320;15.998;2024-01-10T06:53:25;1.77;;;0.20;;
69937;SDS011;57248;47.320;15.998;2024-01-10T06:55:57;2.95;;;1.30;;
69937;SDS011;57248;47.320;15.998;2024-01-10T06:58:29;2.75;;;0.70;;
69937;SDS011;57248;47.320;15.998;2024-01-10T07:00:55;2.63;;;1.65;;
69937;SDS011;57248;47.320;15.998;2024-01-10T07:03:27;0.90;;;0.40;;
69937;SDS011;57248;47.320;15.998;2024-01-10T07:05:59;0.83;;;0.30;;
69937;SDS011;57248;47.320;15.998;2024-01-10T07:08:32;2.20;;;0.93;;
69937;SDS011;57248;47.320;15.998;2024-01-10T07:10:57;3.28;;;1.33;;
69937;SDS011;57248;47.320;15.998;2024-01-10T07:13:30;4.57;;;1.10;;
69937;SDS011;57248;47.320;15.998;2024-01-10T07:16:03;6.15;;;0.70;;
69937;SDS011;57248;47.320;15.998;2024-01-10T07:18:35;2.55;;;0.95;;
69937;SDS011;57248;47.320;15.998;2024-01-10T07:21:08;3.60;;;0.60;;
69937;SDS011;57248;47.320;15.998;2024-01-10T07:23:41;3.90;;;1.65;;
69937;SDS011;57248;47.320;15.998;2024-01-10T07:26:15;10.10;;;0.83;;
69937;SDS011;57248;47.320;15.998;2024-01-10T07:28:48;1.98;;;0.90;;
69937;SDS011;57248;47.320;15.998;2024-01-10T07:31:20;3.22;;;1.05;;
69937;SDS011;57248;47.320;15.998;2024-01-10T07:33:53;4.18;;;1.45;;
69937;SDS011;57248;47.320;15.998;2024-01-10T07:36:20;1.73;;;0.50;;
69937;SDS011;57248;47.320;15.998;2024-01-10T07:38:52;2.80;;;1.03;;
69937;SDS011;57248;47.320;15.998;2024-01-10T07:41:25;5.20;;;1.58;;
69937;SDS011;57248;47.320;15.998;2024-01-10T07:43:57;1.33;;;0.63;;
69937;SDS011;57248;47.320;15.998;2024-01-10T07:46:29;16.40;;;1.42;;
69937;SDS011;57248;47.320;15.998;2024-01-10T07:48:54;3.33;;;1.17;;
69937;SDS011;57248;47.320;15.998;2024-01-10T07:51:26;1.20;;;0.63;;
69937;SDS011;57248;47.320;15.998;2024-01-10T07:53:58;1.77;;;0.85;;
69937;SDS011;57248;47.320;15.998;2024-01-10T07:56:31;9.30;;;2.15;;
69937;SDS011;57248;47.320;15.998;2024-01-10T07:59:03;4.20;;;1.13;;
69937;SDS011;57248;47.320;15.998;2024-01-10T08:01:29;4.40;;;1.58;;
69937;SDS011;57248;47.320;15.998;2024-01-10T08:04:02;4.35;;;0.77;;
69937;SDS011;57248;47.320;15.998;2024-01-10T08:06:34;4.45;;;1.73;;
69937;SDS011;57248;47.320;15.998;2024-01-10T08:09:07;6.00;;;1.52;;
69937;SDS011;57248;47.320;15.998;2024-01-10T08:11:45;6.70;;;1.20;;
69937;SDS011;57248;47.320;15.998;2024-01-10T08:14:18;3.97;;;1.75;;
69937;SDS011;57248;47.320;15.998;2024-01-10T08:16:51;4.68;;;1.55;;
69937;SDS011;57248;47.320;15.998;2024-01-10T08:19:26;7.22;;;2.10;;
69937;SDS011;57248;47.320;15.998;2024-01-10T08:21:59;3.33;;;1.35;;
69937;SDS011;57248;47.320;15.998;2024-01-10T08:24:31;4.73;;;1.47;;
69937;SDS011;57248;47.320;15.998;2024-01-10T08:27:03;5.85;;;1.55;;
69937;SDS011;57248;47.320;15.998;2024-01-10T08:29:28;4.78;;;1.50;;
69937;SDS011;57248;47.320;15.998;2024-01-10T08:32:04;3.45;;;1.55;;
69937;SDS011;57248;47.320;15.998;2024-01-10T08:34:30;6.90;;;1.80;;
69937;SDS011;57248;47.320;15.998;2024-01-10T08:37:03;7.38;;;2.85;;
69937;SDS011;57248;47.320;15.998;2024-01-10T08:39:35;6.05;;;1.67;;
69937;SDS011;57248;47.320;15.998;2024-01-10T08:42:07;9.05;;;2.22;;
69937;SDS011;57248;47.320;15.998;2024-01-10T08:44:42;4.75;;;1.83;;
69937;SDS011;57248;47.320;15.998;2024-01-10T08:47:15;10.87;;;2.67;;
69937;SDS011;57248;47.320;15.998;2024-01-10T08:49:47;11.00;;;3.22;;
69937;SDS011;57248;47.320;15.998;2024-01-10T08:52:19;6.15;;;1.83;;
69937;SDS011;57248;47.320;15.998;2024-01-10T08:54:51;7.35;;;1.30;;
69937;SDS011;57248;47.320;15.998;2024-01-10T08:57:23;7.05;;;2.63;;
69937;SDS011;57248;47.320;15.998;2024-01-10T08:59:55;8.20;;;1.90;;
69937;SDS011;57248;47.320;15.998;2024-01-10T09:02:27;5.65;;;1.98;;
69937;SDS011;57248;47.320;15.998;2024-01-10T09:04:59;9.50;;;2.47;;
69937;SDS011;57248;47.320;15.998;2024-01-10T09:07:24;15.40;;;1.73;;
69937;SDS011;57248;47.320;15.998;2024-01-10T09:09:56;14.95;;;3.22;;
69937;SDS011;57248;47.320;15.998;2024-01-10T09:12:28;7.25;;;2.50;;
69937;SDS011;57248;47.320;15.998;2024-01-10T09:15:07;6.85;;;2.38;;
69937;SDS011;57248;47.320;15.998;2024-01-10T09:17:45;6.23;;;1.90;;
69937;SDS011;57248;47.320;15.998;2024-01-10T09:20:17;6.70;;;2.38;;
69937;SDS011;57248;47.320;15.998;2024-01-10T09:22:49;11.70;;;4.03;;
69937;SDS011;57248;47.320;15.998;2024-01-10T09:25:22;11.27;;;2.88;;
69937;SDS011;57248;47.320;15.998;2024-01-10T09:27:54;11.50;;;2.55;;
69937;SDS011;57248;47.320;15.998;2024-01-10T09:30:28;11.07;;;2.33;;
69937;SDS011;57248;47.320;15.998;2024-01-10T09:33:00;10.32;;;2.85;;
69937;SDS011;57248;47.320;15.998;2024-01-10T09:35:32;6.53;;;2.00;;
69937;SDS011;57248;47.320;15.998;2024-01-10T09:38:04;5.90;;;2.15;;
69937;SDS011;57248;47.320;15.998;2024-01-10T09:40:29;12.67;;;3.60;;
69937;SDS011;57248;47.320;15.998;2024-01-10T09:43:01;7.65;;;2.65;;
69937;SDS011;57248;47.320;15.998;2024-01-10T09:45:27;8.52;;;2.38;;
69937;SDS011;57248;47.320;15.998;2024-01-10T09:48:00;7.23;;;2.67;;
69937;SDS011;57248;47.320;15.998;2024-01-10T09:50:33;5.93;;;2.47;;
69937;SDS011;57248;47.320;15.998;2024-01-10T09:53:05;8.30;;;2.80;;
69937;SDS011;57248;47.320;15.998;2024-01-10T09:55:42;8.32;;;2.88;;
69937;SDS011;57248;47.320;15.998;2024-01-10T09:58:08;7.20;;;2.90;;
69937;SDS011;57248;47.320;15.998;2024-01-10T10:00:42;7.93;;;2.33;;
69937;SDS011;57248;47.320;15.998;2024-01-10T10:03:09;9.93;;;2.20;;
69937;SDS011;57248;47.320;15.998;2024-01-10T10:05:45;12.00;;;2.80;;
69937;SDS011;57248;47.320;15.998;2024-01-10T10:08:19;7.95;;;2.90;;
69937;SDS011;57248;47.320;15.998;2024-01-10T10:11:00;11.68;;;2.97;;
69937;SDS011;57248;47.320;15.998;2024-01-10T10:13:33;8.47;;;1.67;;
69937;SDS011;57248;47.320;15.998;2024-01-10T10:16:08;10.40;;;2.70;;
69937;SDS011;57248;47.320;15.998;2024-01-10T10:18:44;9.75;;;3.42;;
69937;SDS011;57248;47.320;15.998;2024-01-10T10:21:18;7.43;;;2.17;;
69937;SDS011;57248;47.320;15.998;2024-01-10T10:23:59;10.77;;;3.45;;
69937;SDS011;57248;47.320;15.998;2024-01-10T10:26:32;7.37;;;2.23;;
69937;SDS011;57248;47.320;15.998;2024-01-10T10:28:58;10.25;;;2.38;;
69937;SDS011;57248;47.320;15.998;2024-01-10T10:31:31;8.50;;;3.15;;
69937;SDS011;57248;47.320;15.998;2024-01-10T10:34:04;6.75;;;1.98;;
69937;SDS011;57248;47.320;15.998;2024-01-10T10:36:36;6.65;;;2.45;;
69937;SDS011;57248;47.320;15.998;2024-01-10T10:39:01;6.00;;;2.00;;
69937;SDS011;57248;47.320;15.998;2024-01-10T10:41:35;11.55;;;3.20;;
69937;SDS011;57248;47.320;15.998;2024-01-10T10:44:09;6.78;;;2.65;;
69937;SDS011;57248;47.320;15.998;2024-01-10T10:46:43;7.70;;;1.60;;
69937;SDS011;57248;47.320;15.998;2024-01-10T10:49:18;8.20;;;2.67;;
69937;SDS011;57248;47.320;15.998;2024-01-10T10:51:55;8.02;;;2.25;;
69937;SDS011;57248;47.320;15.998;2024-01-10T10:54:30;6.45;;;2.63;;
69937;SDS011;57248;47.320;15.998;2024-01-10T10:57:04;6.47;;;1.58;;
69937;SDS011;57248;47.320;15.998;2024-01-10T10:59:37;5.33;;;2.00;;
69937;SDS011;57248;47.320;15.998;2024-01-10T11:02:11;5.75;;;1.83;;
69937;SDS011;57248;47.320;15.998;2024-01-10T11:04:43;4.68;;;1.77;;
69937;SDS011;57248;47.320;15.998;2024-01-10T11:07:15;4.75;;;1.33;;
69937;SDS011;57248;47.320;15.998;2024-01-10T11:09:47;6.18;;;1.95;;
69937;SDS011;57248;47.320;15.998;2024-01-10T11:12:28;6.80;;;1.30;;
69937;SDS011;57248;47.320;15.998;2024-01-10T11:20:57;3.72;;;1.30;;
69937;SDS011;57248;47.320;15.998;2024-01-10T11:24:10;6.80;;;1.83;;
69937;SDS011;57248;47.320;15.998;2024-01-10T11:26:38;8.00;;;1.80;;
69937;SDS011;57248;47.320;15.998;2024-01-10T11:29:11;6.85;;;2.45;;
69937;SDS011;57248;47.320;15.998;2024-01-10T11:31:50;4.70;;;1.58;;
69937;SDS011;57248;47.320;15.998;2024-01-10T11:34:24;15.23;;;2.33;;
69937;SDS011;57248;47.320;15.998;2024-01-10T11:37:11;6.28;;;1.35;;
69937;SDS011;57248;47.320;15.998;2024-01-10T11:39:45;4.27;;;1.80;;
69937;SDS011;57248;47.320;15.998;2024-01-10T11:42:40;10.48;;;1.85;;
69937;SDS011;57248;47.320;15.998;2024-01-10T11:45:35;5.60;;;1.60;;
69937;SDS011;57248;47.320;15.998;2024-01-10T11:48:09;4.50;;;1.05;;
69937;SDS011;57248;47.320;15.998;2024-01-10T11:50:34;4.47;;;1.37;;
69937;SDS011;57248;47.320;15.998;2024-01-10T11:53:06;5.85;;;1.40;;
69937;SDS011;57248;47.320;15.998;2024-01-10T11:55:49;5.18;;;1.45;;
69937;SDS011;57248;47.320;15.998;2024-01-10T11:58:24;6.83;;;3.67;;
69937;SDS011;57248;47.320;15.998;2024-01-10T12:00:56;5.35;;;1.75;;
69937;SDS011;57248;47.320;15.998;2024-01-10T12:03:29;6.18;;;2.00;;
69937;SDS011;57248;47.320;15.998;2024-01-10T12:06:04;7.50;;;1.95;;
69937;SDS011;57248;47.320;15.998;2024-01-10T12:08:37;5.95;;;1.48;;
69937;SDS011;57248;47.320;15.998;2024-01-10T12:11:10;8.93;;;2.10;;
69937;SDS011;57248;47.320;15.998;2024-01-10T12:13:49;9.20;;;2.40;;
69937;SDS011;57248;47.320;15.998;2024-01-10T12:16:15;5.27;;;1.83;;
69937;SDS011;57248;47.320;15.998;2024-01-10T12:18:48;4.67;;;1.17;;
69937;SDS011;57248;47.320;15.998;2024-01-10T12:21:21;6.07;;;1.25;;
69937;SDS011;57248;47.320;15.998;2024-01-10T12:23:54;4.65;;;1.77;;
69937;SDS011;57248;47.320;15.998;2024-01-10T12:26:20;4.90;;;1.15;;
69937;SDS011;57248;47.320;15.998;2024-01-10T12:28:55;2.30;;;0.60;;
69937;SDS011;57248;47.320;15.998;2024-01-10T12:31:28;3.47;;;1.27;;
69937;SDS011;57248;47.320;15.998;2024-01-10T12:34:01;4.80;;;0.98;;
69937;SDS011;57248;47.320;15.998;2024-01-10T12:36:33;4.57;;;1.65;;
69937;SDS011;57248;47.320;15.998;2024-01-10T12:39:11;5.15;;;1.83;;
69937;SDS011;57248;47.320;15.998;2024-01-10T12:41:45;5.20;;;1.30;;
69937;SDS011;57248;47.320;15.998;2024-01-10T12:44:17;8.27;;;2.30;;
69937;SDS011;57248;47.320;15.998;2024-01-10T12:46:50;3.35;;;1.17;;
69937;SDS011;57248;47.320;15.998;2024-01-10T12:49:24;5.18;;;1.65;;
69937;SDS011;57248;47.320;15.998;2024-01-10T12:51:49;6.23;;;2.03;;
69937;SDS011;57248;47.320;15.998;2024-01-10T12:54:22;6.80;;;1.70;;
69937;SDS011;57248;47.320;15.998;2024-01-10T12:56:54;6.60;;;2.40;;
69937;SDS011;57248;47.320;15.998;2024-01-10T12:59:27;7.95;;;2.05;;
69937;SDS011;57248;47.320;15.998;2024-01-10T13:02:00;6.93;;;1.53;;
69937;SDS011;57248;47.320;15.998;2024-01-10T13:04:32;3.25;;;0.80;;
69937;SDS011;57248;47.320;15.998;2024-01-10T13:07:05;7.40;;;1.95;;
69937;SDS011;57248;47.320;15.998;2024-01-10T13:09:37;7.05;;;2.53;;
69937;SDS011;57248;47.320;15.998;2024-01-10T13:12:02;7.03;;;1.33;;
69937;SDS011;57248;47.320;15.998;2024-01-10T13:14:45;4.00;;;0.70;;
69937;SDS011;57248;47.320;15.998;2024-01-10T13:17:17;6.85;;;1.38;;
69937;SDS011;57248;47.320;15.998;2024-01-10T13:19:42;5.97;;;1.20;;
69937;SDS011;57248;47.320;15.998;2024-01-10T13:22:20;4.55;;;1.50;;
69937;SDS011;57248;47.320;15.998;2024-01-10T13:24:52;4.43;;;1.77;;
69937;SDS011;57248;47.320;15.998;2024-01-10T13:27:24;3.37;;;0.87;;
69937;SDS011;57248;47.320;15.998;2024-01-10T13:29:57;6.50;;;1.95;;
69937;SDS011;57248;47.320;15.998;2024-01-10T13:32:29;7.35;;;1.70;;
69937;SDS011;57248;47.320;15.998;2024-01-10T13:35:02;2.80;;;1.00;;
69937;SDS011;57248;47.320;15.998;2024-01-10T13:37:36;5.93;;;0.95;;
69937;SDS011;57248;47.320;15.998;2024-01-10T13:40:08;4.03;;;0.83;;
69937;SDS011;57248;47.320;15.998;2024-01-10T13:42:41;5.43;;;0.93;;
69937;SDS011;57248;47.320;15.998;2024-01-10T13:45:14;6.70;;;1.63;;
69937;SDS011;57248;47.320;15.998;2024-01-10T13:47:49;4.25;;;1.27;;
69937;SDS011;57248;47.320;15.998;2024-01-10T13:50:21;5.30;;;1.02;;
69937;SDS011;57248;47.320;15.998;2024-01-10T13:52:47;4.77;;;1.60;;
69937;SDS011;57248;47.320;15.998;2024-01-10T13:55:19;4.50;;;0.95;;
69937;SDS011;57248;47.320;15.998;2024-01-10T13:57:52;4.80;;;0.88;;
69937;SDS011;57248;47.320;15.998;2024-01-10T14:00:24;3.58;;;0.82;;
69937;SDS011;57248;47.320;15.998;2024-01-10T14:02:56;4.67;;;1.10;;
69937;SDS011;57248;47.320;15.998;2024-01-10T14:05:31;2.95;;;0.80;;
69937;SDS011;57248;47.320;15.998;2024-01-10T14:08:03;2.90;;;1.23;;
69937;SDS011;57248;47.320;15.998;2024-01-10T14:10:36;3.63;;;1.15;;
69937;SDS011;57248;47.320;15.998;2024-01-10T14:13:11;7.88;;;1.85;;
69937;SDS011;57248;47.320;15.998;2024-01-10T14:15:51;4.90;;;1.70;;
69937;SDS011;57248;47.320;15.998;2024-01-10T14:18:23;4.35;;;1.05;;
69937;SDS011;57248;47.320;15.998;2024-01-10T14:20:48;7.47;;;1.87;;
69937;SDS011;57248;47.320;15.998;2024-01-10T14:23:21;5.72;;;1.23;;
69937;SDS011;57248;47.320;15.998;2024-01-10T14:25:46;7.73;;;1.30;;
69937;SDS011;57248;47.320;15.998;2024-01-10T14:28:19;7.35;;;1.98;;
69937;SDS011;57248;47.320;15.998;2024-01-10T14:30:52;6.10;;;1.27;;
69937;SDS011;57248;47.320;15.998;2024-01-10T14:33:24;4.95;;;1.50;;
69937;SDS011;57248;47.320;15.998;2024-01-10T14:35:56;4.32;;;1.60;;
69937;SDS011;57248;47.320;15.998;2024-01-10T14:38:28;7.90;;;1.63;;
69937;SDS011;57248;47.320;15.998;2024-01-10T14:41:01;6.25;;;1.98;;
69937;SDS011;57248;47.320;15.998;2024-01-10T14:43:33;5.40;;;1.33;;
69937;SDS011;57248;47.320;15.998;2024-01-10T14:46:01;9.88;;;2.10;;
69937;SDS011;57248;47.320;15.998;2024-01-10T14:48:34;6.85;;;2.53;;
69937;SDS011;57248;47.320;15.998;2024-01-10T14:51:07;4.47;;;1.90;;
69937;SDS011;57248;47.320;15.998;2024-01-10T14:53:33;4.90;;;1.25;;
69937;SDS011;57248;47.320;15.998;2024-01-10T14:56:07;4.55;;;1.23;;
69937;SDS011;57248;47.320;15.998;2024-01-10T14:58:39;10.43;;;2.17;;
69937;SDS011;57248;47.320;15.998;2024-01-10T15:01:12;4.45;;;1.25;;
69937;SDS011;57248;47.320;15.998;2024-01-10T15:03:44;6.75;;;1.08;;
69937;SDS011;57248;47.320;15.998;2024-01-10T15:06:16;6.28;;;1.42;;
69937;SDS011;57248;47.320;15.998;2024-01-10T15:08:51;8.05;;;2.28;;